createdAt,value
2019-03-28T00:01:12.756Z,22.05
2019-03-28T00:03:41.484Z,27.75
2019-03-28T00:06:10.389Z,22.60
2019-03-28T00:08:39.319Z,21.42
2019-03-28T00:11:08.133Z,19.87
2019-03-28T00:13:36.959Z,18.98
2019-03-28T00:16:05.837Z,24.85
2019-03-28T00:18:34.665Z,20.35
2019-03-28T00:21:03.579Z,23.18
2019-03-28T00:23:34.030Z,16.10
2019-03-28T00:26:03.292Z,29.12
2019-03-28T00:28:32.343Z,24.25
2019-03-28T00:31:01.258Z,24.32
2019-03-28T00:33:31.115Z,19.50
2019-03-28T00:35:59.953Z,19.40
2019-03-28T00:38:28.803Z,23.40
2019-03-28T00:40:57.674Z,21.37
2019-03-28T00:43:26.493Z,21.55
2019-03-28T00:45:57.735Z,19.15
2019-03-28T00:48:27.143Z,25.02
2019-03-28T00:50:56.133Z,24.37
2019-03-28T00:53:24.958Z,21.65
2019-03-28T00:55:53.815Z,19.17
2019-03-28T00:58:22.746Z,20.37
2019-03-28T01:00:51.622Z,19.70
2019-03-28T01:03:20.567Z,20.52
2019-03-28T01:05:49.417Z,24.87
2019-03-28T01:08:18.254Z,20.55
2019-03-28T01:10:47.246Z,21.95
2019-03-28T01:13:16.330Z,20.12
2019-03-28T01:15:45.119Z,20.35
2019-03-28T01:18:13.935Z,21.35
2019-03-28T01:20:42.778Z,17.85
2019-03-28T01:23:11.650Z,21.30
2019-03-28T01:25:40.543Z,21.65
2019-03-28T01:28:09.345Z,22.17
2019-03-28T01:30:38.182Z,19.25
2019-03-28T01:33:06.974Z,18.23
2019-03-28T01:35:35.858Z,19.27
2019-03-28T01:38:04.747Z,20.00
2019-03-28T01:40:34.095Z,17.87
2019-03-28T01:43:02.997Z,19.98
2019-03-28T01:45:31.843Z,20.80
2019-03-28T01:48:00.670Z,20.27
2019-03-28T01:50:29.558Z,20.95
2019-03-28T01:52:58.391Z,22.50
2019-03-28T01:55:28.203Z,20.82
2019-03-28T01:57:57.399Z,24.47
2019-03-28T02:00:26.305Z,24.60
2019-03-28T02:02:55.054Z,25.68
2019-03-28T02:05:23.901Z,26.55
2019-03-28T02:07:52.729Z,23.47
2019-03-28T02:10:21.658Z,27.25
2019-03-28T02:12:50.502Z,28.60
2019-03-28T02:15:19.340Z,26.25
2019-03-28T02:17:48.201Z,31.55
2019-03-28T02:20:17.175Z,32.80
2019-03-28T02:22:46.021Z,37.33
2019-03-28T02:25:14.834Z,41.95
2019-03-28T02:27:43.648Z,38.85
2019-03-28T02:30:12.855Z,42.98
2019-03-28T02:32:42.062Z,43.63
2019-03-28T02:35:11.020Z,34.05
2019-03-28T02:37:39.731Z,41.63
2019-03-28T02:40:08.543Z,35.70
2019-03-28T02:42:37.338Z,40.60
2019-03-28T02:45:07.572Z,41.70
2019-03-28T02:47:36.514Z,37.40
2019-03-28T02:50:07.242Z,38.63
2019-03-28T02:52:36.455Z,42.25
2019-03-28T02:55:07.858Z,41.88
2019-03-28T02:57:41.523Z,35.52
2019-03-28T03:00:07.815Z,40.55
2019-03-28T03:02:36.706Z,40.50
2019-03-28T03:05:07.869Z,37.65
2019-03-28T03:07:36.673Z,40.75
2019-03-28T03:10:09.889Z,37.95
2019-03-28T03:12:38.798Z,43.25
2019-03-28T03:15:08.524Z,38.30
2019-03-28T03:17:37.446Z,39.98
2019-03-28T03:20:08.296Z,40.25
2019-03-28T03:22:37.284Z,43.58
2019-03-28T03:25:08.030Z,41.15
2019-03-28T03:27:37.329Z,40.90
2019-03-28T03:30:11.285Z,37.38
2019-03-28T03:32:40.106Z,43.52
2019-03-28T03:35:09.517Z,37.30
2019-03-28T03:37:38.404Z,38.42
2019-03-28T03:40:10.724Z,40.23
2019-03-28T03:42:39.589Z,41.85
2019-03-28T03:45:09.627Z,38.50
2019-03-28T03:47:38.722Z,38.88
2019-03-28T03:50:08.375Z,39.53
2019-03-28T03:52:38.393Z,32.50
2019-03-28T03:55:08.411Z,35.65
2019-03-28T03:57:37.299Z,38.58
2019-03-28T04:00:08.692Z,32.13
2019-03-28T04:02:37.544Z,33.78
2019-03-28T04:05:07.115Z,37.95
2019-03-28T04:07:35.917Z,35.20
2019-03-28T04:10:06.127Z,35.17
2019-03-28T04:12:34.971Z,36.77
2019-03-28T04:15:04.185Z,37.23
2019-03-28T04:17:33.018Z,35.15
2019-03-28T04:20:01.825Z,37.33
2019-03-28T04:22:30.627Z,35.88
2019-03-28T04:24:59.429Z,38.28
2019-03-28T04:27:28.217Z,38.13
2019-03-28T04:29:57.092Z,34.08
2019-03-28T04:32:25.901Z,39.38
2019-03-28T04:34:54.738Z,39.10
2019-03-28T04:37:23.574Z,41.10
2019-03-28T04:39:52.399Z,44.30
2019-03-28T04:42:21.238Z,39.45
2019-03-28T04:44:50.069Z,39.38
2019-03-28T04:47:18.883Z,45.98
2019-03-28T04:49:47.699Z,39.35
2019-03-28T04:52:16.491Z,43.13
2019-03-28T04:54:45.408Z,41.68
2019-03-28T04:57:14.223Z,45.60
2019-03-28T04:59:43.016Z,47.33
2019-03-28T05:02:11.774Z,45.52
2019-03-28T05:04:40.748Z,39.85
2019-03-28T05:07:09.606Z,42.25
2019-03-28T05:09:38.262Z,43.92
2019-03-28T05:12:07.117Z,43.78
2019-03-28T05:14:35.925Z,42.40
2019-03-28T05:17:04.747Z,44.00
2019-03-28T05:19:33.582Z,46.25
2019-03-28T05:22:02.371Z,45.00
2019-03-28T05:24:31.215Z,44.98
2019-03-28T05:27:00.115Z,41.53
2019-03-28T05:29:28.889Z,46.18
2019-03-28T05:31:57.679Z,42.65
2019-03-28T05:34:26.481Z,44.60
2019-03-28T05:36:55.384Z,45.70
2019-03-28T05:39:24.199Z,42.10
2019-03-28T05:41:53.042Z,48.70
2019-03-28T05:44:21.783Z,46.35
2019-03-28T05:46:50.548Z,47.78
2019-03-28T05:49:19.399Z,50.52
2019-03-28T05:51:48.195Z,47.75
2019-03-28T05:54:17.051Z,48.20
2019-03-28T05:56:45.875Z,46.50
2019-03-28T05:59:14.673Z,47.75
2019-03-28T06:01:43.465Z,51.37
2019-03-28T06:04:12.282Z,47.70
2019-03-28T06:06:41.174Z,54.27
2019-03-28T06:09:10.090Z,48.98
2019-03-28T06:11:39.031Z,46.15
2019-03-28T06:14:07.856Z,53.05
2019-03-28T06:16:36.725Z,53.42
2019-03-28T06:19:05.568Z,45.67
2019-03-28T06:21:34.382Z,52.90
2019-03-28T06:24:03.478Z,55.63
2019-03-28T06:26:32.357Z,54.03
2019-03-28T06:29:01.839Z,56.18
2019-03-28T06:31:30.651Z,55.05
2019-03-28T06:34:00.453Z,50.17
2019-03-28T06:36:29.417Z,53.92
2019-03-28T06:39:17.652Z,53.00
2019-03-28T06:41:46.511Z,52.35
2019-03-28T06:44:15.327Z,52.65
2019-03-28T06:46:44.071Z,50.05
2019-03-28T06:49:12.997Z,56.42
2019-03-28T06:51:41.881Z,53.30
2019-03-28T06:54:10.815Z,54.50
2019-03-28T06:56:39.610Z,54.00
2019-03-28T06:59:08.336Z,56.25
2019-03-28T07:01:39.787Z,52.05
2019-03-28T07:04:08.590Z,53.38
2019-03-28T07:06:37.470Z,54.40
2019-03-28T07:09:08.581Z,48.73
2019-03-28T07:11:37.447Z,53.87
2019-03-28T07:14:06.322Z,54.18
2019-03-28T07:16:35.058Z,58.10
2019-03-28T07:19:03.869Z,44.27
2019-03-28T07:21:32.713Z,43.78
2019-03-28T07:24:01.668Z,48.38
2019-03-28T07:26:30.465Z,42.05
2019-03-28T07:28:59.486Z,46.37
2019-03-28T07:31:28.543Z,45.65
2019-03-28T07:33:57.402Z,54.90
2019-03-28T07:36:26.254Z,46.42
2019-03-28T07:38:55.058Z,46.50
2019-03-28T07:41:23.901Z,44.55
2019-03-28T07:43:52.708Z,45.67
2019-03-28T07:46:21.583Z,40.78
2019-03-28T07:48:50.414Z,45.92
2019-03-28T07:51:19.160Z,50.08
2019-03-28T07:53:48.100Z,46.92
2019-03-28T07:56:16.825Z,44.48
2019-03-28T07:58:45.702Z,41.83
2019-03-28T08:01:16.655Z,50.95
2019-03-28T08:03:45.946Z,52.25
2019-03-28T08:06:14.933Z,46.13
2019-03-28T08:08:44.290Z,44.83
2019-03-28T08:11:13.341Z,49.58
2019-03-28T08:13:42.267Z,46.20
2019-03-28T08:16:11.121Z,48.63
2019-03-28T08:18:39.953Z,46.42
2019-03-28T08:21:08.792Z,52.25
2019-03-28T08:23:37.585Z,45.63
2019-03-28T08:26:06.463Z,41.90
2019-03-28T08:28:36.843Z,42.78
2019-03-28T08:31:05.703Z,44.18
2019-03-28T08:33:36.796Z,42.00
2019-03-28T08:36:06.673Z,41.20
2019-03-28T08:38:38.936Z,39.05
2019-03-28T08:41:07.762Z,35.73
2019-03-28T08:43:36.572Z,30.62
2019-03-28T08:46:08.637Z,35.95
2019-03-28T08:48:36.073Z,34.98
2019-03-28T08:51:05.026Z,34.55
2019-03-28T08:53:33.849Z,32.00
2019-03-28T08:56:02.708Z,36.13
2019-03-28T08:58:31.580Z,39.45
2019-03-28T09:01:00.453Z,36.85
2019-03-28T09:03:29.331Z,38.23
2019-03-28T09:05:58.238Z,49.50
2019-03-28T09:08:27.067Z,36.80
2019-03-28T09:10:55.897Z,30.52
2019-03-28T09:13:24.795Z,35.40
2019-03-28T09:15:53.630Z,33.90
2019-03-28T09:18:22.515Z,27.05
2019-03-28T09:20:51.413Z,36.40
2019-03-28T09:23:20.201Z,32.05
2019-03-28T09:25:49.080Z,31.30
2019-03-28T09:28:17.976Z,36.73
2019-03-28T09:30:49.379Z,33.45
2019-03-28T09:33:17.242Z,34.70
2019-03-28T09:35:46.274Z,33.30
2019-03-28T09:38:15.333Z,36.98
2019-03-28T09:40:44.175Z,42.62
2019-03-28T09:43:12.978Z,33.73
2019-03-28T09:45:41.957Z,38.28
2019-03-28T09:48:11.806Z,38.30
2019-03-28T09:50:41.171Z,26.48
2019-03-28T09:53:09.968Z,34.73
2019-03-28T09:55:38.816Z,28.07
2019-03-28T09:58:08.329Z,29.42
2019-03-28T10:00:38.631Z,29.70
2019-03-28T10:03:07.648Z,34.30
2019-03-28T10:05:38.241Z,40.80
2019-03-28T10:08:06.980Z,68.83
2019-03-28T10:10:35.946Z,80.55
2019-03-28T10:13:04.717Z,57.10
2019-03-28T10:15:36.783Z,56.05
2019-03-28T10:18:04.187Z,58.33
2019-03-28T10:20:33.156Z,38.20
2019-03-28T10:23:02.129Z,41.68
2019-03-28T10:25:31.071Z,34.48
2019-03-28T10:28:00.040Z,36.90
2019-03-28T10:30:40.379Z,59.33
2019-03-28T10:33:09.418Z,35.25
2019-03-28T10:35:38.338Z,32.58
2019-03-28T10:38:07.222Z,39.80
2019-03-28T10:40:36.472Z,37.58
2019-03-28T10:43:06.224Z,33.65
2019-03-28T10:45:35.136Z,32.20
2019-03-28T10:48:03.972Z,28.90
2019-03-28T10:50:40.878Z,29.87
2019-03-28T10:53:03.480Z,31.52
2019-03-28T10:55:33.145Z,33.75
2019-03-28T10:58:17.172Z,26.65
2019-03-28T11:00:34.090Z,27.02
2019-03-28T11:03:04.774Z,18.80
2019-03-28T11:05:33.967Z,21.12
2019-03-28T11:08:06.020Z,24.52
2019-03-28T11:10:34.969Z,23.73
2019-03-28T11:13:09.282Z,28.02
2019-03-28T11:15:36.807Z,22.70
2019-03-28T11:18:05.812Z,26.30
2019-03-28T11:20:39.488Z,19.52
2019-03-28T11:23:05.318Z,22.17
2019-03-28T11:25:34.899Z,29.02
2019-03-28T11:28:06.194Z,19.87
2019-03-28T11:30:35.561Z,23.22
2019-03-28T11:33:06.433Z,20.08
2019-03-28T11:35:35.311Z,23.40
2019-03-28T11:38:05.497Z,23.20
2019-03-28T11:40:34.997Z,22.13
2019-03-28T11:43:04.449Z,16.95
2019-03-28T11:45:34.094Z,18.42
2019-03-28T11:48:03.063Z,16.73
2019-03-28T11:50:32.267Z,17.90
2019-03-28T11:53:01.112Z,15.45
2019-03-28T11:55:32.087Z,18.25
2019-03-28T11:58:00.662Z,17.17
2019-03-28T12:00:35.679Z,19.73
2019-03-28T12:03:04.694Z,16.50
2019-03-28T12:05:37.244Z,30.80
2019-03-28T12:08:06.233Z,17.32
2019-03-28T12:10:35.965Z,16.60
2019-03-28T12:13:04.940Z,21.35
2019-03-28T12:15:33.852Z,21.23
2019-03-28T12:18:04.227Z,21.95
2019-03-28T12:20:33.239Z,25.65
2019-03-28T12:23:04.268Z,21.10
2019-03-28T12:25:34.521Z,23.05
2019-03-28T12:28:03.884Z,20.70
2019-03-28T12:30:32.902Z,20.75
2019-03-28T12:33:04.536Z,14.85
2019-03-28T12:35:34.048Z,20.40
2019-03-28T12:38:03.642Z,19.12
2019-03-28T12:40:34.192Z,19.32
2019-03-28T12:43:09.081Z,16.60
2019-03-28T12:45:39.052Z,20.48
2019-03-28T12:48:09.066Z,21.75
2019-03-28T12:50:53.334Z,32.05
2019-03-28T12:53:20.115Z,20.35
2019-03-28T12:55:39.980Z,21.42
2019-03-28T12:58:09.360Z,16.65
2019-03-28T13:00:38.995Z,17.42
2019-03-28T13:03:08.015Z,16.62
2019-03-28T13:05:39.130Z,19.77
2019-03-28T13:08:14.078Z,18.32
2019-03-28T13:10:44.622Z,13.70
2019-03-28T13:13:13.555Z,10.80
2019-03-28T13:15:47.121Z,13.50
2019-03-28T13:18:15.943Z,19.62
2019-03-28T13:20:45.267Z,17.98
2019-03-28T13:23:14.209Z,22.37
2019-03-28T13:25:43.244Z,25.50
2019-03-28T13:28:13.291Z,19.35
2019-03-28T13:30:43.806Z,23.60
2019-03-28T13:33:12.653Z,26.42
2019-03-28T13:35:44.619Z,20.97
2019-03-28T13:38:17.937Z,20.05
2019-03-28T13:40:46.821Z,19.15
2019-03-28T13:43:15.667Z,15.30
2019-03-28T13:45:44.646Z,21.75
2019-03-28T13:48:14.898Z,17.55
2019-03-28T13:50:43.841Z,15.40
2019-03-28T13:53:12.747Z,11.68
2019-03-28T13:55:41.685Z,14.85
2019-03-28T13:58:11.620Z,19.30
2019-03-28T14:00:40.579Z,13.72
2019-03-28T14:03:09.429Z,16.40
2019-03-28T14:05:38.246Z,11.95
2019-03-28T14:08:08.915Z,18.98
2019-03-28T14:10:39.360Z,14.87
2019-03-28T14:13:10.030Z,16.42
2019-03-28T14:15:43.296Z,16.00
2019-03-28T14:18:12.388Z,21.05
2019-03-28T14:20:43.156Z,22.75
2019-03-28T14:23:12.010Z,24.37
2019-03-28T14:25:40.967Z,20.65
2019-03-28T14:28:11.434Z,25.25
2019-03-28T14:30:41.025Z,25.68
2019-03-28T14:33:12.066Z,28.07
2019-03-28T14:35:43.120Z,20.02
2019-03-28T14:38:12.034Z,21.50
2019-03-28T14:40:42.995Z,25.48
2019-03-28T14:43:11.714Z,19.82
2019-03-28T14:45:42.084Z,21.52
2019-03-28T14:48:14.109Z,23.15
2019-03-28T14:50:44.108Z,26.60
2019-03-28T14:53:13.000Z,25.90
2019-03-28T14:55:42.103Z,22.22
2019-03-28T14:58:11.063Z,30.10
2019-03-28T15:00:46.725Z,22.85
2019-03-28T15:03:25.626Z,20.55
2019-03-28T15:05:48.843Z,24.80
2019-03-28T15:08:18.106Z,24.45
2019-03-28T15:10:49.825Z,23.02
2019-03-28T15:13:21.126Z,30.52
2019-03-28T15:15:50.975Z,24.75
2019-03-28T15:18:19.939Z,25.48
2019-03-28T15:20:48.775Z,23.10
2019-03-28T15:23:18.790Z,24.15
2019-03-28T15:25:47.784Z,28.00
2019-03-28T15:28:19.543Z,26.50
2019-03-28T15:30:49.714Z,22.50
2019-03-28T15:33:18.919Z,22.13
2019-03-28T15:35:47.756Z,20.88
2019-03-28T15:38:16.726Z,21.42
2019-03-28T15:40:47.580Z,24.75
2019-03-28T15:43:18.062Z,20.23
2019-03-28T15:45:46.967Z,20.48
2019-03-28T15:48:15.895Z,18.87
2019-03-28T15:50:46.384Z,21.10
2019-03-28T15:53:15.363Z,15.93
2019-03-28T15:55:44.263Z,21.45
2019-03-28T15:58:23.297Z,19.90
2019-03-28T16:00:43.718Z,18.57
2019-03-28T16:03:12.848Z,16.45
2019-03-28T16:05:42.576Z,23.73
2019-03-28T16:08:11.536Z,26.07
2019-03-28T16:10:40.449Z,24.40
2019-03-28T16:13:09.399Z,23.07
2019-03-28T16:15:38.433Z,23.52
2019-03-28T16:18:07.423Z,32.75
2019-03-28T16:20:36.220Z,24.05
2019-03-28T16:23:08.182Z,21.87
2019-03-28T16:25:38.665Z,27.73
2019-03-28T16:28:07.624Z,28.23
2019-03-28T16:30:38.398Z,31.05
2019-03-28T16:33:07.530Z,26.17
2019-03-28T16:35:36.454Z,18.92
2019-03-28T16:38:05.307Z,17.87
2019-03-28T16:40:55.512Z,22.85
2019-03-28T16:43:25.819Z,20.82
2019-03-28T16:45:55.106Z,19.25
2019-03-28T16:48:23.962Z,22.13
2019-03-28T16:50:54.089Z,24.67
2019-03-28T16:53:23.520Z,26.82
2019-03-28T16:55:52.470Z,20.88
2019-03-28T16:58:21.332Z,20.25
2019-03-28T17:00:50.673Z,23.52
2019-03-28T17:03:19.615Z,17.67
2019-03-28T17:05:48.543Z,20.92
2019-03-28T17:08:17.780Z,18.77
2019-03-28T17:10:52.131Z,20.20
2019-03-28T17:13:20.904Z,20.25
2019-03-28T17:15:51.684Z,19.50
2019-03-28T17:18:20.317Z,22.32
2019-03-28T17:20:49.922Z,22.30
2019-03-28T17:23:18.957Z,19.50
2019-03-28T17:25:49.198Z,22.05
2019-03-28T17:28:18.103Z,23.38
2019-03-28T17:30:46.938Z,24.82
2019-03-28T17:33:17.762Z,20.95
2019-03-28T17:35:46.408Z,23.77
2019-03-28T17:38:16.354Z,22.40
2019-03-28T17:40:45.219Z,28.57
2019-03-28T17:43:16.258Z,18.23
2019-03-28T17:45:45.151Z,19.57
2019-03-28T17:48:14.028Z,30.70
2019-03-28T17:50:45.262Z,23.07
2019-03-28T17:53:15.981Z,21.05
2019-03-28T17:55:45.160Z,21.70
2019-03-28T17:58:16.325Z,18.98
2019-03-28T18:00:46.545Z,19.27
2019-03-28T18:03:16.189Z,17.27
2019-03-28T18:05:57.518Z,15.95
2019-03-28T18:08:17.189Z,18.20
2019-03-28T18:10:46.241Z,21.52
2019-03-28T18:13:15.155Z,20.80
2019-03-28T18:15:44.192Z,20.37
2019-03-28T18:18:14.503Z,19.02
2019-03-28T18:20:43.485Z,18.92
2019-03-28T18:23:12.442Z,21.85
2019-03-28T18:25:42.417Z,21.23
2019-03-28T18:28:12.246Z,20.20
2019-03-28T18:30:43.133Z,22.25
2019-03-28T18:33:15.624Z,23.50
2019-03-28T18:35:48.966Z,16.37
2019-03-28T18:41:12.717Z,28.38
2019-03-28T18:46:46.461Z,22.80
2019-03-28T18:49:18.320Z,23.32
2019-03-28T18:51:52.713Z,17.87
2019-03-28T18:54:21.805Z,15.65
2019-03-28T18:56:58.254Z,16.10
2019-03-28T18:59:34.092Z,19.12
2019-03-28T19:02:24.754Z,25.30
2019-03-28T19:04:57.681Z,20.92
2019-03-28T19:07:28.350Z,21.73
2019-03-28T19:09:59.105Z,22.20
2019-03-28T19:12:39.651Z,18.90
2019-03-28T19:15:16.649Z,27.55
2019-03-28T19:17:48.952Z,27.95
2019-03-28T19:20:33.096Z,25.40
2019-03-28T19:23:07.560Z,30.57
2019-03-28T19:25:41.157Z,25.50
2019-03-28T19:28:29.606Z,21.68
2019-03-28T19:30:58.613Z,23.15
2019-03-28T19:33:32.378Z,19.23
2019-03-28T19:36:03.324Z,21.02
2019-03-28T19:38:35.262Z,24.35
2019-03-28T19:41:05.893Z,29.23
2019-03-28T19:43:34.886Z,27.27
2019-03-28T19:46:03.995Z,35.70
2019-03-28T19:48:34.166Z,27.77
2019-03-28T19:51:03.065Z,22.85
2019-03-28T19:53:35.124Z,25.12
2019-03-28T19:56:02.601Z,23.73
2019-03-28T19:58:34.972Z,23.90
2019-03-28T20:04:06.507Z,28.90
2019-03-28T20:09:24.449Z,23.67
2019-03-28T20:14:41.787Z,27.30
2019-03-28T20:17:13.761Z,25.35
2019-03-28T20:19:43.134Z,30.72
2019-03-28T20:22:30.776Z,28.32
2019-03-28T20:25:22.570Z,37.78
2019-03-28T20:30:40.806Z,32.28
2019-03-28T20:33:26.637Z,25.68
2019-03-28T20:39:24.948Z,29.92
2019-03-28T20:41:58.377Z,24.87
2019-03-28T20:50:11.107Z,25.88
2019-03-28T20:59:02.017Z,29.37
2019-03-28T21:01:50.704Z,32.67
2019-03-28T21:04:32.082Z,29.32
2019-03-28T21:09:57.892Z,28.92
2019-03-28T21:13:20.660Z,28.98
2019-03-28T21:15:45.950Z,26.20
2019-03-28T21:21:23.395Z,31.70
2019-03-28T21:23:52.297Z,26.77
2019-03-28T21:26:21.257Z,28.40
2019-03-28T21:28:51.271Z,41.77
2019-03-28T21:31:20.623Z,38.33
2019-03-28T21:33:54.926Z,31.37
2019-03-28T21:36:29.837Z,31.62
2019-03-28T21:38:54.273Z,39.48
2019-03-28T21:41:23.209Z,27.87
2019-03-28T21:43:52.907Z,30.20
2019-03-28T21:46:23.286Z,29.75
2019-03-28T21:48:52.185Z,29.82
2019-03-28T21:54:10.583Z,30.45
2019-03-28T21:56:41.443Z,29.02
2019-03-28T21:59:11.708Z,45.33
2019-03-28T22:01:43.318Z,42.45
2019-03-28T22:04:13.444Z,44.25
2019-03-28T22:06:43.500Z,44.70
2019-03-28T22:09:16.699Z,45.00
2019-03-28T22:11:45.540Z,36.65
2019-03-28T22:14:15.545Z,40.05
2019-03-28T22:16:44.490Z,40.38
2019-03-28T22:19:13.404Z,34.27
2019-03-28T22:21:45.316Z,37.38
2019-03-28T22:24:14.179Z,36.42
2019-03-28T22:26:45.918Z,35.92
2019-03-28T22:29:13.713Z,36.03
2019-03-28T22:31:43.976Z,37.93
2019-03-28T22:34:12.834Z,31.95
2019-03-28T22:36:41.758Z,37.93
2019-03-28T22:39:10.596Z,38.48
2019-03-28T22:41:39.451Z,35.98
2019-03-28T22:44:08.264Z,32.38
2019-03-28T22:46:39.776Z,35.23
2019-03-28T22:49:08.479Z,39.33
2019-03-28T22:51:37.558Z,41.37
2019-03-28T22:54:07.128Z,35.70
2019-03-28T22:56:38.053Z,64.00
2019-03-28T22:59:08.209Z,39.48
2019-03-28T23:01:37.036Z,39.25
2019-03-28T23:04:05.980Z,40.25
2019-03-28T23:06:34.853Z,42.27
2019-03-28T23:09:04.491Z,42.90
2019-03-28T23:11:33.337Z,42.85
2019-03-28T23:14:04.474Z,40.90
2019-03-28T23:16:51.573Z,39.10
2019-03-28T23:19:20.511Z,37.28
2019-03-28T23:21:49.284Z,37.05
2019-03-28T23:24:18.107Z,35.85
2019-03-28T23:26:46.975Z,37.17
2019-03-28T23:29:15.785Z,37.08
2019-03-28T23:31:44.610Z,41.05
2019-03-28T23:34:13.439Z,37.13
2019-03-28T23:36:42.214Z,44.38
2019-03-28T23:39:11.179Z,36.77
2019-03-28T23:41:40.577Z,39.03
2019-03-28T23:44:09.435Z,40.17
2019-03-28T23:46:39.203Z,37.95
2019-03-28T23:49:08.068Z,43.17
2019-03-28T23:51:36.894Z,44.67
2019-03-28T23:54:05.673Z,41.08
2019-03-28T23:56:34.531Z,41.65
2019-03-28T23:59:03.343Z,47.98
